sensor_id;sensor_type;location;lat;lon;timestamp;temperature;humidity
19403;DHT22;9837;48.888;8.998;2023-09-19T00:02:17;22.30;63.50
19403;DHT22;9837;48.888;8.998;2023-09-19T00:07:09;22.40;63.40
19403;DHT22;9837;48.888;8.998;2023-09-19T00:09:35;22.10;63.90
19403;DHT22;9837;48.888;8.998;2023-09-19T00:12:05;21.80;64.80
19403;DHT22;9837;48.888;8.998;2023-09-19T00:16:59;22.10;64.70
19403;DHT22;9837;48.888;8.998;2023-09-19T00:19:26;22.20;64.10
19403;DHT22;9837;48.888;8.998;2023-09-19T00:21:51;22.20;64.20
19403;DHT22;9837;48.888;8.998;2023-09-19T00:24:18;22.30;64.10
19403;DHT22;9837;48.888;8.998;2023-09-19T00:26:44;22.10;64.20
19403;DHT22;9837;48.888;8.998;2023-09-19T00:29:11;22.10;64.50
19403;DHT22;9837;48.888;8.998;2023-09-19T00:31:43;22.10;64.40
19403;DHT22;9837;48.888;8.998;2023-09-19T00:34:09;22.00;64.60
19403;DHT22;9837;48.888;8.998;2023-09-19T00:39:04;22.10;64.20
19403;DHT22;9837;48.888;8.998;2023-09-19T00:41:33;22.20;64.00
19403;DHT22;9837;48.888;8.998;2023-09-19T00:48:53;22.40;63.00
19403;DHT22;9837;48.888;8.998;2023-09-19T00:51:20;22.50;62.90
19403;DHT22;9837;48.888;8.998;2023-09-19T00:53:47;22.60;62.60
19403;DHT22;9837;48.888;8.998;2023-09-19T00:56:14;22.50;62.40
19403;DHT22;9837;48.888;8.998;2023-09-19T01:01:10;22.50;62.60
19403;DHT22;9837;48.888;8.998;2023-09-19T01:03:37;22.50;62.30
19403;DHT22;9837;48.888;8.998;2023-09-19T01:08:29;22.60;62.30
19403;DHT22;9837;48.888;8.998;2023-09-19T01:11:12;22.50;62.00
19403;DHT22;9837;48.888;8.998;2023-09-19T01:16:56;22.30;62.50
19403;DHT22;9837;48.888;8.998;2023-09-19T01:22:14;22.30;62.60
19403;DHT22;9837;48.888;8.998;2023-09-19T01:24:54;22.30;62.50
19403;DHT22;9837;48.888;8.998;2023-09-19T01:30:38;22.40;62.30
19403;DHT22;9837;48.888;8.998;2023-09-19T01:33:06;22.40;62.20
19403;DHT22;9837;48.888;8.998;2023-09-19T01:35:32;22.30;62.30
19403;DHT22;9837;48.888;8.998;2023-09-19T01:37:59;22.30;62.50
19403;DHT22;9837;48.888;8.998;2023-09-19T01:40:25;22.20;62.70
19403;DHT22;9837;48.888;8.998;2023-09-19T01:43:06;22.20;62.90
19403;DHT22;9837;48.888;8.998;2023-09-19T01:48:53;22.20;62.70
19403;DHT22;9837;48.888;8.998;2023-09-19T01:51:27;22.20;62.70
19403;DHT22;9837;48.888;8.998;2023-09-19T01:54:03;22.30;62.60
19403;DHT22;9837;48.888;8.998;2023-09-19T01:56:48;22.30;62.50
19403;DHT22;9837;48.888;8.998;2023-09-19T01:59:24;22.20;62.70
19403;DHT22;9837;48.888;8.998;2023-09-19T02:01:53;22.10;62.80
19403;DHT22;9837;48.888;8.998;2023-09-19T02:04:19;22.10;62.90
19403;DHT22;9837;48.888;8.998;2023-09-19T02:11:39;22.00;63.30
19403;DHT22;9837;48.888;8.998;2023-09-19T02:14:06;21.90;63.30
19403;DHT22;9837;48.888;8.998;2023-09-19T02:16:34;22.00;63.20
19403;DHT22;9837;48.888;8.998;2023-09-19T02:18:59;21.90;63.10
19403;DHT22;9837;48.888;8.998;2023-09-19T02:23:55;21.90;63.00
19403;DHT22;9837;48.888;8.998;2023-09-19T02:28:47;22.00;62.90
19403;DHT22;9837;48.888;8.998;2023-09-19T02:31:12;22.00;62.90
19403;DHT22;9837;48.888;8.998;2023-09-19T02:36:04;22.10;62.80
19403;DHT22;9837;48.888;8.998;2023-09-19T02:43:23;22.10;62.60
19403;DHT22;9837;48.888;8.998;2023-09-19T02:45:49;22.00;62.70
19403;DHT22;9837;48.888;8.998;2023-09-19T02:48:15;22.00;62.80
19403;DHT22;9837;48.888;8.998;2023-09-19T02:50:42;22.00;62.80
19403;DHT22;9837;48.888;8.998;2023-09-19T02:53:08;22.00;62.80
19403;DHT22;9837;48.888;8.998;2023-09-19T02:55:33;21.90;63.10
19403;DHT22;9837;48.888;8.998;2023-09-19T02:57:59;21.90;63.50
19403;DHT22;9837;48.888;8.998;2023-09-19T03:00:27;21.90;63.40
19403;DHT22;9837;48.888;8.998;2023-09-19T03:02:54;21.90;63.40
19403;DHT22;9837;48.888;8.998;2023-09-19T03:05:21;22.00;63.40
19403;DHT22;9837;48.888;8.998;2023-09-19T03:07:48;22.00;63.10
19403;DHT22;9837;48.888;8.998;2023-09-19T03:15:09;21.80;64.40
19403;DHT22;9837;48.888;8.998;2023-09-19T03:17:35;21.80;64.50
19403;DHT22;9837;48.888;8.998;2023-09-19T03:20:01;21.90;64.70
19403;DHT22;9837;48.888;8.998;2023-09-19T03:24:55;21.90;64.50
19403;DHT22;9837;48.888;8.998;2023-09-19T03:29:47;21.60;65.70
19403;DHT22;9837;48.888;8.998;2023-09-19T03:34:39;21.50;66.30
19403;DHT22;9837;48.888;8.998;2023-09-19T03:37:09;21.70;66.10
19403;DHT22;9837;48.888;8.998;2023-09-19T03:39:35;21.70;66.10
19403;DHT22;9837;48.888;8.998;2023-09-19T03:42:02;21.60;66.10
19403;DHT22;9837;48.888;8.998;2023-09-19T03:44:32;21.70;66.20
19403;DHT22;9837;48.888;8.998;2023-09-19T03:46:57;21.80;65.90
19403;DHT22;9837;48.888;8.998;2023-09-19T03:49:23;21.90;65.50
19403;DHT22;9837;48.888;8.998;2023-09-19T03:51:48;21.90;65.40
19403;DHT22;9837;48.888;8.998;2023-09-19T03:54:14;21.90;65.40
19403;DHT22;9837;48.888;8.998;2023-09-19T03:56:40;22.00;65.40
19403;DHT22;9837;48.888;8.998;2023-09-19T03:59:05;22.00;65.40
19403;DHT22;9837;48.888;8.998;2023-09-19T04:01:31;22.00;65.40
19403;DHT22;9837;48.888;8.998;2023-09-19T04:03:57;22.00;65.40
19403;DHT22;9837;48.888;8.998;2023-09-19T04:06:23;22.10;65.30
19403;DHT22;9837;48.888;8.998;2023-09-19T04:08:49;22.10;65.20
19403;DHT22;9837;48.888;8.998;2023-09-19T04:11:14;22.20;64.90
19403;DHT22;9837;48.888;8.998;2023-09-19T04:13:40;22.20;64.70
19403;DHT22;9837;48.888;8.998;2023-09-19T04:21:04;22.30;64.90
19403;DHT22;9837;48.888;8.998;2023-09-19T04:25:57;22.30;65.00
19403;DHT22;9837;48.888;8.998;2023-09-19T04:28:23;22.30;65.00
19403;DHT22;9837;48.888;8.998;2023-09-19T04:30:49;22.30;65.30
19403;DHT22;9837;48.888;8.998;2023-09-19T04:33:15;22.30;65.40
19403;DHT22;9837;48.888;8.998;2023-09-19T04:38:08;22.30;65.60
19403;DHT22;9837;48.888;8.998;2023-09-19T04:40:33;22.30;65.40
19403;DHT22;9837;48.888;8.998;2023-09-19T04:43:00;22.30;65.40
19403;DHT22;9837;48.888;8.998;2023-09-19T04:45:26;22.30;66.40
19403;DHT22;9837;48.888;8.998;2023-09-19T04:47:52;21.90;67.20
19403;DHT22;9837;48.888;8.998;2023-09-19T04:52:49;21.80;68.50
19403;DHT22;9837;48.888;8.998;2023-09-19T04:55:16;21.90;68.40
19403;DHT22;9837;48.888;8.998;2023-09-19T04:57:51;21.90;68.90
19403;DHT22;9837;48.888;8.998;2023-09-19T05:00:20;21.90;68.60
19403;DHT22;9837;48.888;8.998;2023-09-19T05:02:52;21.80;68.80
19403;DHT22;9837;48.888;8.998;2023-09-19T05:05:19;21.80;69.10
19403;DHT22;9837;48.888;8.998;2023-09-19T05:07:45;21.60;68.70
19403;DHT22;9837;48.888;8.998;2023-09-19T05:10:11;21.40;69.60
19403;DHT22;9837;48.888;8.998;2023-09-19T05:15:04;21.30;70.40
19403;DHT22;9837;48.888;8.998;2023-09-19T05:19:58;21.20;70.50
19403;DHT22;9837;48.888;8.998;2023-09-19T05:22:26;21.20;70.80
19403;DHT22;9837;48.888;8.998;2023-09-19T05:24:52;21.20;70.90
19403;DHT22;9837;48.888;8.998;2023-09-19T05:29:44;21.00;71.30
19403;DHT22;9837;48.888;8.998;2023-09-19T05:34:36;20.90;71.60
19403;DHT22;9837;48.888;8.998;2023-09-19T05:37:02;20.90;71.20
19403;DHT22;9837;48.888;8.998;2023-09-19T05:39:27;20.90;71.10
19403;DHT22;9837;48.888;8.998;2023-09-19T05:41:53;20.90;70.30
19403;DHT22;9837;48.888;8.998;2023-09-19T05:44:18;20.90;69.90
19403;DHT22;9837;48.888;8.998;2023-09-19T05:46:44;20.90;69.50
19403;DHT22;9837;48.888;8.998;2023-09-19T05:49:11;20.80;69.30
19403;DHT22;9837;48.888;8.998;2023-09-19T05:51:36;20.80;69.20
19403;DHT22;9837;48.888;8.998;2023-09-19T05:54:02;20.80;69.20
19403;DHT22;9837;48.888;8.998;2023-09-19T05:56:30;20.80;69.30
19403;DHT22;9837;48.888;8.998;2023-09-19T05:58:55;20.90;68.50
19403;DHT22;9837;48.888;8.998;2023-09-19T06:01:21;20.90;68.40
19403;DHT22;9837;48.888;8.998;2023-09-19T06:03:47;20.90;68.50
19403;DHT22;9837;48.888;8.998;2023-09-19T06:06:13;21.00;68.40
19403;DHT22;9837;48.888;8.998;2023-09-19T06:11:04;21.00;68.20
19403;DHT22;9837;48.888;8.998;2023-09-19T06:13:32;20.90;68.40
19403;DHT22;9837;48.888;8.998;2023-09-19T06:15:59;20.90;68.20
19403;DHT22;9837;48.888;8.998;2023-09-19T06:18:28;20.80;68.30
19403;DHT22;9837;48.888;8.998;2023-09-19T06:20:54;20.80;68.00
19403;DHT22;9837;48.888;8.998;2023-09-19T06:23:21;20.90;68.20
19403;DHT22;9837;48.888;8.998;2023-09-19T06:25:46;20.90;68.10
19403;DHT22;9837;48.888;8.998;2023-09-19T06:28:12;21.10;67.60
19403;DHT22;9837;48.888;8.998;2023-09-19T06:30:38;21.20;67.10
19403;DHT22;9837;48.888;8.998;2023-09-19T06:33:05;21.30;66.50
19403;DHT22;9837;48.888;8.998;2023-09-19T06:35:33;21.50;66.40
19403;DHT22;9837;48.888;8.998;2023-09-19T06:37:59;21.70;65.80
19403;DHT22;9837;48.888;8.998;2023-09-19T06:40:28;22.00;65.70
19403;DHT22;9837;48.888;8.998;2023-09-19T06:42:54;22.20;63.60
19403;DHT22;9837;48.888;8.998;2023-09-19T06:47:47;22.40;63.00
19403;DHT22;9837;48.888;8.998;2023-09-19T06:50:15;22.60;63.30
19403;DHT22;9837;48.888;8.998;2023-09-19T06:55:10;22.90;61.70
19403;DHT22;9837;48.888;8.998;2023-09-19T06:57:37;23.00;61.10
19403;DHT22;9837;48.888;8.998;2023-09-19T07:00:02;23.00;60.70
19403;DHT22;9837;48.888;8.998;2023-09-19T07:02:34;22.90;60.50
19403;DHT22;9837;48.888;8.998;2023-09-19T07:07:25;23.00;60.80
19403;DHT22;9837;48.888;8.998;2023-09-19T07:09:51;23.00;61.20
19403;DHT22;9837;48.888;8.998;2023-09-19T07:12:18;23.00;61.10
19403;DHT22;9837;48.888;8.998;2023-09-19T07:17:10;23.00;60.90
19403;DHT22;9837;48.888;8.998;2023-09-19T07:19:37;23.00;60.30
19403;DHT22;9837;48.888;8.998;2023-09-19T07:24:28;22.90;59.90
19403;DHT22;9837;48.888;8.998;2023-09-19T07:26:54;22.90;60.90
19403;DHT22;9837;48.888;8.998;2023-09-19T07:29:19;23.00;60.70
19403;DHT22;9837;48.888;8.998;2023-09-19T07:31:45;23.10;60.30
19403;DHT22;9837;48.888;8.998;2023-09-19T07:36:39;23.30;59.60
19403;DHT22;9837;48.888;8.998;2023-09-19T07:39:05;23.40;59.40
19403;DHT22;9837;48.888;8.998;2023-09-19T07:41:33;23.40;59.10
19403;DHT22;9837;48.888;8.998;2023-09-19T07:48:51;23.60;59.40
19403;DHT22;9837;48.888;8.998;2023-09-19T07:51:17;23.60;59.00
19403;DHT22;9837;48.888;8.998;2023-09-19T07:53:42;23.70;59.60
19403;DHT22;9837;48.888;8.998;2023-09-19T07:56:09;23.80;59.40
19403;DHT22;9837;48.888;8.998;2023-09-19T07:58:36;24.00;59.40
19403;DHT22;9837;48.888;8.998;2023-09-19T08:01:08;24.10;59.00
19403;DHT22;9837;48.888;8.998;2023-09-19T08:03:35;24.30;58.30
19403;DHT22;9837;48.888;8.998;2023-09-19T08:06:03;24.30;57.60
19403;DHT22;9837;48.888;8.998;2023-09-19T08:10:58;24.20;57.10
19403;DHT22;9837;48.888;8.998;2023-09-19T08:13:25;24.10;57.60
19403;DHT22;9837;48.888;8.998;2023-09-19T08:15:51;24.10;57.70
19403;DHT22;9837;48.888;8.998;2023-09-19T08:18:16;24.10;57.40
19403;DHT22;9837;48.888;8.998;2023-09-19T08:20:42;24.20;57.50
19403;DHT22;9837;48.888;8.998;2023-09-19T08:23:11;24.40;56.30
19403;DHT22;9837;48.888;8.998;2023-09-19T08:25:37;24.50;56.20
19403;DHT22;9837;48.888;8.998;2023-09-19T08:28:04;24.60;56.00
19403;DHT22;9837;48.888;8.998;2023-09-19T08:30:33;24.80;55.40
19403;DHT22;9837;48.888;8.998;2023-09-19T08:33:00;24.90;55.00
19403;DHT22;9837;48.888;8.998;2023-09-19T08:35:27;24.90;55.40
19403;DHT22;9837;48.888;8.998;2023-09-19T08:40:18;25.00;54.90
19403;DHT22;9837;48.888;8.998;2023-09-19T08:42:51;25.20;55.20
19403;DHT22;9837;48.888;8.998;2023-09-19T08:45:17;25.30;54.80
19403;DHT22;9837;48.888;8.998;2023-09-19T08:47:54;25.30;54.80
19403;DHT22;9837;48.888;8.998;2023-09-19T08:50:28;25.60;54.00
19403;DHT22;9837;48.888;8.998;2023-09-19T08:52:55;25.70;53.40
19403;DHT22;9837;48.888;8.998;2023-09-19T08:55:26;25.70;53.10
19403;DHT22;9837;48.888;8.998;2023-09-19T08:57:59;25.70;53.60
19403;DHT22;9837;48.888;8.998;2023-09-19T09:00:26;25.70;53.20
19403;DHT22;9837;48.888;8.998;2023-09-19T09:02:55;25.80;52.00
19403;DHT22;9837;48.888;8.998;2023-09-19T09:05:22;25.80;51.90
19403;DHT22;9837;48.888;8.998;2023-09-19T09:07:49;25.70;51.00
19403;DHT22;9837;48.888;8.998;2023-09-19T09:10:20;25.60;51.30
19403;DHT22;9837;48.888;8.998;2023-09-19T09:12:50;25.50;51.00
19403;DHT22;9837;48.888;8.998;2023-09-19T09:15:18;25.50;50.50
19403;DHT22;9837;48.888;8.998;2023-09-19T09:17:47;25.60;51.50
19403;DHT22;9837;48.888;8.998;2023-09-19T09:20:13;25.90;50.70
19403;DHT22;9837;48.888;8.998;2023-09-19T09:27:35;26.00;49.00
19403;DHT22;9837;48.888;8.998;2023-09-19T09:30:01;26.00;49.70
19403;DHT22;9837;48.888;8.998;2023-09-19T09:32:28;26.20;48.80
19403;DHT22;9837;48.888;8.998;2023-09-19T09:35:06;26.20;48.50
19403;DHT22;9837;48.888;8.998;2023-09-19T09:40:04;26.40;47.80
19403;DHT22;9837;48.888;8.998;2023-09-19T09:42:42;26.30;47.50
19403;DHT22;9837;48.888;8.998;2023-09-19T09:45:19;26.30;47.70
19403;DHT22;9837;48.888;8.998;2023-09-19T09:47:53;26.50;48.20
19403;DHT22;9837;48.888;8.998;2023-09-19T09:50:31;26.30;47.20
19403;DHT22;9837;48.888;8.998;2023-09-19T09:53:27;26.00;47.50
19403;DHT22;9837;48.888;8.998;2023-09-19T09:56:08;26.00;48.30
19403;DHT22;9837;48.888;8.998;2023-09-19T09:58:49;25.90;47.00
19403;DHT22;9837;48.888;8.998;2023-09-19T10:01:15;25.80;47.80
19403;DHT22;9837;48.888;8.998;2023-09-19T10:03:43;25.80;48.50
19403;DHT22;9837;48.888;8.998;2023-09-19T10:06:15;26.10;48.60
19403;DHT22;9837;48.888;8.998;2023-09-19T10:09:03;26.40;47.80
19403;DHT22;9837;48.888;8.998;2023-09-19T10:11:47;26.70;47.30
19403;DHT22;9837;48.888;8.998;2023-09-19T10:14:25;27.00;47.20
19403;DHT22;9837;48.888;8.998;2023-09-19T10:16:56;27.20;46.50
19403;DHT22;9837;48.888;8.998;2023-09-19T10:19:45;27.20;45.60
19403;DHT22;9837;48.888;8.998;2023-09-19T10:22:13;27.50;46.30
19403;DHT22;9837;48.888;8.998;2023-09-19T10:24:47;26.80;45.60
19403;DHT22;9837;48.888;8.998;2023-09-19T10:27:12;26.70;45.80
19403;DHT22;9837;48.888;8.998;2023-09-19T10:29:39;26.80;46.40
19403;DHT22;9837;48.888;8.998;2023-09-19T10:32:06;26.80;46.80
19403;DHT22;9837;48.888;8.998;2023-09-19T10:34:35;27.10;45.70
19403;DHT22;9837;48.888;8.998;2023-09-19T10:37:02;27.10;45.40
19403;DHT22;9837;48.888;8.998;2023-09-19T10:39:32;27.00;45.40
19403;DHT22;9837;48.888;8.998;2023-09-19T10:42:02;26.90;45.80
19403;DHT22;9837;48.888;8.998;2023-09-19T10:44:32;26.70;46.00
19403;DHT22;9837;48.888;8.998;2023-09-19T10:46:58;26.40;46.90
19403;DHT22;9837;48.888;8.998;2023-09-19T10:49:24;26.00;46.80
19403;DHT22;9837;48.888;8.998;2023-09-19T10:51:53;25.60;48.20
19403;DHT22;9837;48.888;8.998;2023-09-19T10:54:23;25.50;48.60
19403;DHT22;9837;48.888;8.998;2023-09-19T10:56:52;25.40;47.80
19403;DHT22;9837;48.888;8.998;2023-09-19T10:59:20;25.10;48.50
19403;DHT22;9837;48.888;8.998;2023-09-19T11:01:51;25.10;48.50
19403;DHT22;9837;48.888;8.998;2023-09-19T11:04:26;25.10;48.40
19403;DHT22;9837;48.888;8.998;2023-09-19T11:07:12;25.20;48.20
19403;DHT22;9837;48.888;8.998;2023-09-19T11:14:54;25.90;48.90
19403;DHT22;9837;48.888;8.998;2023-09-19T11:30:34;26.00;47.80
19403;DHT22;9837;48.888;8.998;2023-09-19T11:36:05;26.00;48.60
19403;DHT22;9837;48.888;8.998;2023-09-19T11:43:46;26.50;47.80
19403;DHT22;9837;48.888;8.998;2023-09-19T11:46:12;27.00;46.00
19403;DHT22;9837;48.888;8.998;2023-09-19T11:48:42;27.20;45.50
19403;DHT22;9837;48.888;8.998;2023-09-19T11:51:17;27.40;45.00
19403;DHT22;9837;48.888;8.998;2023-09-19T11:53:58;27.40;45.70
19403;DHT22;9837;48.888;8.998;2023-09-19T11:56:28;28.00;44.30
19403;DHT22;9837;48.888;8.998;2023-09-19T11:58:55;28.20;43.00
19403;DHT22;9837;48.888;8.998;2023-09-19T12:01:25;28.10;42.40
19403;DHT22;9837;48.888;8.998;2023-09-19T12:03:55;28.20;42.80
19403;DHT22;9837;48.888;8.998;2023-09-19T12:06:23;28.30;42.60
19403;DHT22;9837;48.888;8.998;2023-09-19T12:08:49;28.30;43.10
19403;DHT22;9837;48.888;8.998;2023-09-19T12:11:16;27.70;42.60
19403;DHT22;9837;48.888;8.998;2023-09-19T12:13:46;27.80;42.00
19403;DHT22;9837;48.888;8.998;2023-09-19T12:18:40;28.30;41.70
19403;DHT22;9837;48.888;8.998;2023-09-19T12:21:08;28.50;40.00
19403;DHT22;9837;48.888;8.998;2023-09-19T12:26:30;28.50;38.80
19403;DHT22;9837;48.888;8.998;2023-09-19T12:28:59;28.40;39.70
19403;DHT22;9837;48.888;8.998;2023-09-19T12:31:27;28.50;39.20
19403;DHT22;9837;48.888;8.998;2023-09-19T12:33:54;28.30;39.50
19403;DHT22;9837;48.888;8.998;2023-09-19T12:36:23;28.30;39.10
19403;DHT22;9837;48.888;8.998;2023-09-19T12:38:56;28.50;39.80
19403;DHT22;9837;48.888;8.998;2023-09-19T12:41:25;28.70;39.90
19403;DHT22;9837;48.888;8.998;2023-09-19T12:43:55;28.80;39.30
19403;DHT22;9837;48.888;8.998;2023-09-19T12:46:21;28.80;38.20
19403;DHT22;9837;48.888;8.998;2023-09-19T12:49:19;28.90;39.70
19403;DHT22;9837;48.888;8.998;2023-09-19T12:51:48;29.00;39.10
19403;DHT22;9837;48.888;8.998;2023-09-19T12:56:44;29.10;38.60
19403;DHT22;9837;48.888;8.998;2023-09-19T12:59:12;29.10;39.20
19403;DHT22;9837;48.888;8.998;2023-09-19T13:01:39;28.80;38.90
19403;DHT22;9837;48.888;8.998;2023-09-19T13:04:15;29.00;39.90
19403;DHT22;9837;48.888;8.998;2023-09-19T13:06:45;28.60;40.40
19403;DHT22;9837;48.888;8.998;2023-09-19T13:09:12;28.10;39.70
19403;DHT22;9837;48.888;8.998;2023-09-19T13:11:40;28.10;39.40
19403;DHT22;9837;48.888;8.998;2023-09-19T13:14:20;28.30;39.70
19403;DHT22;9837;48.888;8.998;2023-09-19T13:17:05;28.50;40.40
19403;DHT22;9837;48.888;8.998;2023-09-19T13:19:48;28.60;40.60
19403;DHT22;9837;48.888;8.998;2023-09-19T13:22:37;28.70;40.10
19403;DHT22;9837;48.888;8.998;2023-09-19T13:25:20;29.00;39.80
19403;DHT22;9837;48.888;8.998;2023-09-19T13:27:56;28.60;38.70
19403;DHT22;9837;48.888;8.998;2023-09-19T13:30:27;28.60;39.30
19403;DHT22;9837;48.888;8.998;2023-09-19T13:33:11;28.70;39.90
19403;DHT22;9837;48.888;8.998;2023-09-19T13:35:38;28.80;39.20
19403;DHT22;9837;48.888;8.998;2023-09-19T13:38:05;28.90;39.80
19403;DHT22;9837;48.888;8.998;2023-09-19T13:40:32;29.10;39.20
19403;DHT22;9837;48.888;8.998;2023-09-19T13:45:26;28.80;38.80
19403;DHT22;9837;48.888;8.998;2023-09-19T13:47:52;29.00;38.90
19403;DHT22;9837;48.888;8.998;2023-09-19T13:50:19;29.00;39.20
19403;DHT22;9837;48.888;8.998;2023-09-19T13:52:49;28.90;38.20
19403;DHT22;9837;48.888;8.998;2023-09-19T13:55:17;28.80;39.50
19403;DHT22;9837;48.888;8.998;2023-09-19T13:57:48;28.80;39.70
19403;DHT22;9837;48.888;8.998;2023-09-19T14:00:22;28.80;38.40
19403;DHT22;9837;48.888;8.998;2023-09-19T14:02:48;28.80;39.50
19403;DHT22;9837;48.888;8.998;2023-09-19T14:05:14;29.00;38.70
19403;DHT22;9837;48.888;8.998;2023-09-19T14:07:42;29.00;38.40
19403;DHT22;9837;48.888;8.998;2023-09-19T14:10:09;29.00;38.80
19403;DHT22;9837;48.888;8.998;2023-09-19T14:12:36;28.90;39.50
19403;DHT22;9837;48.888;8.998;2023-09-19T14:15:03;28.80;39.20
19403;DHT22;9837;48.888;8.998;2023-09-19T14:17:29;28.80;38.90
19403;DHT22;9837;48.888;8.998;2023-09-19T14:19:55;28.60;38.70
19403;DHT22;9837;48.888;8.998;2023-09-19T14:22:20;28.40;38.60
19403;DHT22;9837;48.888;8.998;2023-09-19T14:24:46;28.40;39.30
19403;DHT22;9837;48.888;8.998;2023-09-19T14:27:13;28.30;38.90
19403;DHT22;9837;48.888;8.998;2023-09-19T14:29:38;28.30;38.90
19403;DHT22;9837;48.888;8.998;2023-09-19T14:32:04;28.40;38.60
19403;DHT22;9837;48.888;8.998;2023-09-19T14:34:30;28.50;38.10
19403;DHT22;9837;48.888;8.998;2023-09-19T14:36:56;28.70;38.40
19403;DHT22;9837;48.888;8.998;2023-09-19T14:41:49;28.70;38.10
19403;DHT22;9837;48.888;8.998;2023-09-19T14:44:14;28.60;37.60
19403;DHT22;9837;48.888;8.998;2023-09-19T14:46:42;28.50;38.40
19403;DHT22;9837;48.888;8.998;2023-09-19T14:49:09;28.50;38.50
19403;DHT22;9837;48.888;8.998;2023-09-19T14:51:35;28.30;38.30
19403;DHT22;9837;48.888;8.998;2023-09-19T14:54:03;28.20;38.20
19403;DHT22;9837;48.888;8.998;2023-09-19T14:56:29;28.10;38.90
19403;DHT22;9837;48.888;8.998;2023-09-19T14:58:56;28.10;38.60
19403;DHT22;9837;48.888;8.998;2023-09-19T15:01:21;28.00;38.30
19403;DHT22;9837;48.888;8.998;2023-09-19T15:03:48;28.00;39.20
19403;DHT22;9837;48.888;8.998;2023-09-19T15:06:15;27.90;39.50
19403;DHT22;9837;48.888;8.998;2023-09-19T15:08:42;27.80;39.20
19403;DHT22;9837;48.888;8.998;2023-09-19T15:11:13;27.70;39.80
19403;DHT22;9837;48.888;8.998;2023-09-19T15:13:41;27.70;39.80
19403;DHT22;9837;48.888;8.998;2023-09-19T15:16:08;27.70;39.90
19403;DHT22;9837;48.888;8.998;2023-09-19T15:18:38;27.70;39.60
19403;DHT22;9837;48.888;8.998;2023-09-19T15:21:05;27.50;39.30
19403;DHT22;9837;48.888;8.998;2023-09-19T15:23:31;27.40;39.90
19403;DHT22;9837;48.888;8.998;2023-09-19T15:26:05;27.40;40.70
19403;DHT22;9837;48.888;8.998;2023-09-19T15:28:32;27.40;40.90
19403;DHT22;9837;48.888;8.998;2023-09-19T15:31:03;27.40;40.40
19403;DHT22;9837;48.888;8.998;2023-09-19T15:33:30;27.30;40.30
19403;DHT22;9837;48.888;8.998;2023-09-19T15:36:13;27.30;40.30
19403;DHT22;9837;48.888;8.998;2023-09-19T15:39:01;27.30;40.50
19403;DHT22;9837;48.888;8.998;2023-09-19T15:41:39;27.30;40.80
19403;DHT22;9837;48.888;8.998;2023-09-19T15:44:14;27.30;40.40
19403;DHT22;9837;48.888;8.998;2023-09-19T15:46:41;27.30;41.10
19403;DHT22;9837;48.888;8.998;2023-09-19T15:49:07;27.30;41.20
19403;DHT22;9837;48.888;8.998;2023-09-19T15:51:33;27.30;41.50
19403;DHT22;9837;48.888;8.998;2023-09-19T15:53:59;27.30;41.70
19403;DHT22;9837;48.888;8.998;2023-09-19T15:56:28;27.20;42.30
19403;DHT22;9837;48.888;8.998;2023-09-19T15:58:55;27.30;42.30
19403;DHT22;9837;48.888;8.998;2023-09-19T16:01:22;27.20;42.00
19403;DHT22;9837;48.888;8.998;2023-09-19T16:03:52;27.20;42.00
19403;DHT22;9837;48.888;8.998;2023-09-19T16:06:23;27.20;42.40
19403;DHT22;9837;48.888;8.998;2023-09-19T16:08:51;27.10;42.60
19403;DHT22;9837;48.888;8.998;2023-09-19T16:11:17;27.10;42.70
19403;DHT22;9837;48.888;8.998;2023-09-19T16:13:47;27.10;43.10
19403;DHT22;9837;48.888;8.998;2023-09-19T16:16:13;27.00;43.30
19403;DHT22;9837;48.888;8.998;2023-09-19T16:18:54;27.00;43.40
19403;DHT22;9837;48.888;8.998;2023-09-19T16:21:23;26.90;43.20
19403;DHT22;9837;48.888;8.998;2023-09-19T16:23:50;26.90;43.30
19403;DHT22;9837;48.888;8.998;2023-09-19T16:26:17;26.90;43.20
19403;DHT22;9837;48.888;8.998;2023-09-19T16:28:47;26.90;43.30
19403;DHT22;9837;48.888;8.998;2023-09-19T16:31:14;26.80;43.60
19403;DHT22;9837;48.888;8.998;2023-09-19T16:33:43;26.80;43.60
19403;DHT22;9837;48.888;8.998;2023-09-19T16:36:09;26.80;43.90
19403;DHT22;9837;48.888;8.998;2023-09-19T16:38:37;26.70;43.80
19403;DHT22;9837;48.888;8.998;2023-09-19T16:41:03;26.70;44.20
19403;DHT22;9837;48.888;8.998;2023-09-19T16:43:32;26.60;44.40
19403;DHT22;9837;48.888;8.998;2023-09-19T16:46:03;26.50;44.80
19403;DHT22;9837;48.888;8.998;2023-09-19T16:48:34;26.50;45.00
19403;DHT22;9837;48.888;8.998;2023-09-19T16:51:02;26.40;45.30
19403;DHT22;9837;48.888;8.998;2023-09-19T16:53:29;26.40;45.00
19403;DHT22;9837;48.888;8.998;2023-09-19T16:56:00;26.30;45.60
19403;DHT22;9837;48.888;8.998;2023-09-19T16:58:25;26.30;45.20
19403;DHT22;9837;48.888;8.998;2023-09-19T17:03:17;26.20;45.50
19403;DHT22;9837;48.888;8.998;2023-09-19T17:05:43;26.10;45.70
19403;DHT22;9837;48.888;8.998;2023-09-19T17:08:10;26.70;46.60
19403;DHT22;9837;48.888;8.998;2023-09-19T17:10:36;26.10;45.80
19403;DHT22;9837;48.888;8.998;2023-09-19T17:13:02;26.00;45.60
19403;DHT22;9837;48.888;8.998;2023-09-19T17:15:28;25.90;46.00
19403;DHT22;9837;48.888;8.998;2023-09-19T17:17:57;25.90;46.30
19403;DHT22;9837;48.888;8.998;2023-09-19T17:20:23;25.80;46.40
19403;DHT22;9837;48.888;8.998;2023-09-19T17:25:16;25.60;46.50
19403;DHT22;9837;48.888;8.998;2023-09-19T17:27:42;25.60;46.70
19403;DHT22;9837;48.888;8.998;2023-09-19T17:30:09;25.50;47.00
19403;DHT22;9837;48.888;8.998;2023-09-19T17:32:36;25.50;47.50
19403;DHT22;9837;48.888;8.998;2023-09-19T17:35:03;25.40;47.50
19403;DHT22;9837;48.888;8.998;2023-09-19T17:37:29;25.40;47.50
19403;DHT22;9837;48.888;8.998;2023-09-19T17:39:54;25.30;47.70
19403;DHT22;9837;48.888;8.998;2023-09-19T17:42:20;25.30;47.90
19403;DHT22;9837;48.888;8.998;2023-09-19T17:44:45;25.10;48.10
19403;DHT22;9837;48.888;8.998;2023-09-19T17:47:11;25.00;48.80
19403;DHT22;9837;48.888;8.998;2023-09-19T17:49:37;24.90;48.60
19403;DHT22;9837;48.888;8.998;2023-09-19T17:52:02;24.80;48.80
19403;DHT22;9837;48.888;8.998;2023-09-19T17:54:29;24.70;48.80
19403;DHT22;9837;48.888;8.998;2023-09-19T17:59:22;24.70;48.30
19403;DHT22;9837;48.888;8.998;2023-09-19T18:01:48;24.70;48.30
19403;DHT22;9837;48.888;8.998;2023-09-19T18:04:15;24.70;48.20
19403;DHT22;9837;48.888;8.998;2023-09-19T18:06:43;24.60;48.30
19403;DHT22;9837;48.888;8.998;2023-09-19T18:09:09;24.50;48.10
19403;DHT22;9837;48.888;8.998;2023-09-19T18:11:35;24.50;48.10
19403;DHT22;9837;48.888;8.998;2023-09-19T18:14:01;24.50;48.20
19403;DHT22;9837;48.888;8.998;2023-09-19T18:18:56;24.40;48.30
19403;DHT22;9837;48.888;8.998;2023-09-19T18:23:52;24.30;48.50
19403;DHT22;9837;48.888;8.998;2023-09-19T18:26:18;24.20;48.60
19403;DHT22;9837;48.888;8.998;2023-09-19T18:28:44;24.30;48.90
19403;DHT22;9837;48.888;8.998;2023-09-19T18:31:12;24.20;48.80
19403;DHT22;9837;48.888;8.998;2023-09-19T18:36:07;24.20;49.10
19403;DHT22;9837;48.888;8.998;2023-09-19T18:38:38;24.20;49.00
19403;DHT22;9837;48.888;8.998;2023-09-19T18:41:09;24.20;49.00
19403;DHT22;9837;48.888;8.998;2023-09-19T18:43:36;24.20;49.20